Gay, West Virginia
Current Conditions -  °F | °C
As of 1:01 AM on Friday 28 Nov 2014 (Local Time) from KCRW Reporting Station
Light Snow Light Snow  
Wind Chill: 22°   Ceiling: 1700
Heat Index: 30°   Visibility: 6mi
Dew Point: 25°   Wind: 8mph
Humidity: 82%   Direction: 280°W
Pressure: 30.32"   Gusts: NA
Location:  38.77°N, 81.55°W
Report Text: KCRW 280601Z 28007KT 6SM -SN BKN017 OVC022 M01/M04 A3032 RMK AO2 P0000 T10111039
Loading
Personal Weather Stations






























Interactive Weather Map New forecast layout! Learn more

10-Day Weather Forecast

Advertisements
Track Severe Weather on mobile